createdAt,value
2018-01-06T00:00:51.585Z,7.60
2018-01-06T00:03:19.032Z,7.50
2018-01-06T00:05:46.500Z,7.50
2018-01-06T00:08:14.005Z,7.50
2018-01-06T00:10:42.290Z,7.50
2018-01-06T00:13:10.520Z,7.50
2018-01-06T00:15:38.400Z,7.50
2018-01-06T00:18:05.856Z,7.50
2018-01-06T00:20:33.606Z,7.50
2018-01-06T00:23:01.048Z,7.50
2018-01-06T00:25:28.726Z,7.40
2018-01-06T00:27:56.699Z,7.50
2018-01-06T00:30:24.168Z,7.40
2018-01-06T00:32:52.841Z,7.50
2018-01-06T00:35:20.325Z,7.50
2018-01-06T00:37:48.638Z,7.40
2018-01-06T00:40:16.197Z,7.40
2018-01-06T00:42:43.629Z,7.50
2018-01-06T00:45:11.132Z,7.40
2018-01-06T00:47:38.667Z,7.40
2018-01-06T00:50:06.357Z,7.40
2018-01-06T00:52:33.792Z,7.40
2018-01-06T00:55:01.225Z,7.30
2018-01-06T00:57:28.829Z,7.30
2018-01-06T00:59:56.268Z,7.30
2018-01-06T01:02:23.737Z,7.30
2018-01-06T01:04:51.172Z,7.30
2018-01-06T01:07:19.587Z,7.20
2018-01-06T01:09:49.366Z,7.20
2018-01-06T01:12:16.824Z,7.30
2018-01-06T01:14:45.069Z,7.30
2018-01-06T01:17:12.526Z,7.30
2018-01-06T01:19:40.003Z,7.30
2018-01-06T01:22:07.489Z,7.30
2018-01-06T01:24:35.020Z,7.30
2018-01-06T01:27:02.923Z,7.40
2018-01-06T01:29:30.681Z,7.40
2018-01-06T01:31:58.649Z,7.30
2018-01-06T01:34:26.120Z,7.30
2018-01-06T01:36:53.555Z,7.30
2018-01-06T01:39:21.112Z,7.30
2018-01-06T01:41:48.548Z,7.30
2018-01-06T01:44:16.054Z,7.30
2018-01-06T01:46:43.502Z,7.30
2018-01-06T01:49:12.593Z,7.20
2018-01-06T01:51:40.439Z,7.20
2018-01-06T01:54:07.910Z,7.20
2018-01-06T01:56:35.352Z,7.20
2018-01-06T01:59:02.853Z,7.20
2018-01-06T02:01:31.678Z,7.20
2018-01-06T02:03:59.369Z,7.20
2018-01-06T02:06:26.812Z,7.20
2018-01-06T02:08:54.251Z,7.20
2018-01-06T02:11:21.712Z,7.20
2018-01-06T02:13:49.677Z,7.20
2018-01-06T02:16:17.131Z,7.20
2018-01-06T02:18:44.588Z,7.30
2018-01-06T02:21:12.816Z,7.30
2018-01-06T02:23:41.481Z,7.30
2018-01-06T02:26:09.224Z,7.20
2018-01-06T02:28:37.111Z,7.30
2018-01-06T02:31:04.570Z,7.30
2018-01-06T02:33:33.915Z,7.20
2018-01-06T02:36:01.358Z,7.20
2018-01-06T02:38:29.672Z,7.20
2018-01-06T02:40:57.231Z,7.10
2018-01-06T02:43:24.724Z,7.10
2018-01-06T02:45:53.151Z,7.10
2018-01-06T02:48:20.775Z,7.10
2018-01-06T02:50:48.234Z,7.10
2018-01-06T02:53:15.676Z,7.10
2018-01-06T02:55:43.144Z,7.10
2018-01-06T02:58:10.755Z,7.10
2018-01-06T03:00:38.556Z,7.10
2018-01-06T03:03:06.050Z,7.10
2018-01-06T03:05:34.510Z,7.00
2018-01-06T03:08:01.962Z,7.00
2018-01-06T03:10:29.416Z,7.00
2018-01-06T03:12:57.359Z,6.90
2018-01-06T03:15:24.874Z,7.00
2018-01-06T03:17:52.430Z,6.90
2018-01-06T03:20:19.880Z,6.90
2018-01-06T03:22:48.086Z,6.90
2018-01-06T03:25:15.638Z,6.90
2018-01-06T03:27:43.648Z,6.90
2018-01-06T03:30:11.377Z,6.80
2018-01-06T03:32:39.987Z,6.80
2018-01-06T03:35:07.458Z,6.80
2018-01-06T03:37:34.886Z,6.90
2018-01-06T03:40:02.390Z,6.90
2018-01-06T03:42:29.852Z,6.90
2018-01-06T03:44:58.086Z,6.90
2018-01-06T03:47:25.894Z,6.90
2018-01-06T03:49:54.114Z,6.80
2018-01-06T03:52:21.756Z,6.80
2018-01-06T03:54:49.216Z,6.80
2018-01-06T03:57:16.839Z,6.80
2018-01-06T03:59:45.151Z,6.80
2018-01-06T04:02:13.254Z,6.80
2018-01-06T04:04:40.690Z,6.80
2018-01-06T04:07:08.235Z,6.80
2018-01-06T04:09:35.666Z,6.80
2018-01-06T04:12:03.966Z,6.70
2018-01-06T04:14:31.516Z,6.70
2018-01-06T04:16:58.979Z,6.70
2018-01-06T04:19:26.489Z,6.60
2018-01-06T04:21:54.077Z,6.60
2018-01-06T04:24:22.301Z,6.60
2018-01-06T04:26:50.176Z,6.60
2018-01-06T04:29:18.210Z,6.60
2018-01-06T04:31:45.646Z,6.60
2018-01-06T04:34:14.276Z,6.60
2018-01-06T04:36:42.162Z,6.60
2018-01-06T04:39:09.594Z,6.50
2018-01-06T04:41:37.053Z,6.50
2018-01-06T04:44:04.524Z,6.50
2018-01-06T04:46:32.274Z,6.50
2018-01-06T04:48:59.712Z,6.50
2018-01-06T04:51:27.419Z,6.50
2018-01-06T04:53:55.654Z,6.50
2018-01-06T04:56:23.115Z,6.50
2018-01-06T04:58:50.557Z,6.50
2018-01-06T05:01:18.629Z,6.50
2018-01-06T05:03:46.066Z,6.50
2018-01-06T05:06:13.525Z,6.50
2018-01-06T05:08:40.995Z,6.50
2018-01-06T05:11:08.484Z,6.50
2018-01-06T05:13:36.135Z,6.50
2018-01-06T05:16:03.639Z,6.50
2018-01-06T05:18:31.948Z,6.50
2018-01-06T05:20:59.403Z,6.50
2018-01-06T05:23:27.310Z,6.60
2018-01-06T05:25:55.044Z,6.60
2018-01-06T05:28:23.690Z,6.60
2018-01-06T05:30:51.900Z,6.60
2018-01-06T05:33:20.197Z,6.60
2018-01-06T05:35:48.106Z,6.60
2018-01-06T05:38:16.340Z,6.60
2018-01-06T05:40:43.871Z,6.60
2018-01-06T05:43:11.426Z,6.60
2018-01-06T05:45:38.989Z,6.60
2018-01-06T05:48:06.439Z,6.60
2018-01-06T05:50:33.900Z,6.60
2018-01-06T05:53:01.338Z,6.60
2018-01-06T05:55:29.074Z,6.60
2018-01-06T05:57:57.642Z,6.60
2018-01-06T06:00:25.142Z,6.60
2018-01-06T06:02:52.612Z,6.60
2018-01-06T06:05:20.065Z,6.60
2018-01-06T06:07:47.577Z,6.60
2018-01-06T06:10:15.162Z,6.60
2018-01-06T06:12:43.382Z,6.70
2018-01-06T06:15:11.124Z,6.70
2018-01-06T06:17:38.583Z,6.70
2018-01-06T06:20:06.140Z,6.70
2018-01-06T06:22:33.634Z,6.80
2018-01-06T06:25:01.129Z,6.80
2018-01-06T06:27:29.774Z,6.80
2018-01-06T06:29:57.314Z,6.80
2018-01-06T06:32:24.879Z,6.90
2018-01-06T06:34:52.823Z,6.90
2018-01-06T06:37:20.269Z,6.90
2018-01-06T06:39:47.864Z,6.90
2018-01-06T06:42:15.340Z,6.90
2018-01-06T06:44:42.804Z,7.00
2018-01-06T06:47:10.247Z,7.00
2018-01-06T06:49:38.172Z,7.00
2018-01-06T06:52:05.657Z,7.00
2018-01-06T06:54:34.115Z,7.00
2018-01-06T06:57:01.568Z,7.00
2018-01-06T06:59:29.024Z,7.00
2018-01-06T07:01:56.466Z,7.00
2018-01-06T07:04:24.174Z,7.00
2018-01-06T07:06:51.626Z,7.10
2018-01-06T07:09:19.123Z,7.10
2018-01-06T07:11:47.329Z,7.10
2018-01-06T07:14:14.929Z,7.10
2018-01-06T07:16:42.506Z,7.10
2018-01-06T07:19:11.773Z,7.10
2018-01-06T07:21:39.409Z,7.10
2018-01-06T07:24:06.867Z,7.10
2018-01-06T07:26:34.894Z,7.10
2018-01-06T07:29:02.892Z,7.20
2018-01-06T07:31:30.350Z,7.20
2018-01-06T07:33:57.774Z,7.20
2018-01-06T07:36:27.150Z,7.10
2018-01-06T07:38:56.556Z,7.10
2018-01-06T07:41:24.598Z,7.10
2018-01-06T07:43:52.145Z,7.10
2018-01-06T07:46:19.605Z,7.00
2018-01-06T07:48:47.133Z,7.10
2018-01-06T07:51:15.341Z,7.10
2018-01-06T07:53:42.893Z,7.10
2018-01-06T07:56:10.373Z,7.10
2018-01-06T07:58:37.844Z,7.10
2018-01-06T08:01:05.464Z,7.10
2018-01-06T08:03:32.940Z,7.10
2018-01-06T08:06:00.406Z,7.10
2018-01-06T08:08:27.845Z,7.10
2018-01-06T08:10:55.708Z,7.10
2018-01-06T08:13:23.163Z,7.10
2018-01-06T08:15:50.937Z,7.10
2018-01-06T08:18:18.447Z,7.10
2018-01-06T08:20:46.741Z,7.10
2018-01-06T08:23:14.133Z,7.10
2018-01-06T08:25:42.526Z,7.10
2018-01-06T08:28:10.801Z,7.10
2018-01-06T08:30:38.349Z,7.10
2018-01-06T08:33:05.785Z,7.10
2018-01-06T08:35:33.589Z,7.10
2018-01-06T08:38:01.033Z,7.10
2018-01-06T08:40:28.697Z,7.00
2018-01-06T08:42:56.145Z,7.00
2018-01-06T08:45:23.804Z,7.00
2018-01-06T08:47:51.252Z,7.00
2018-01-06T08:50:19.153Z,6.90
2018-01-06T08:52:46.621Z,7.00
2018-01-06T08:55:14.832Z,6.90
2018-01-06T08:57:42.424Z,6.90
2018-01-06T09:00:09.865Z,6.90
2018-01-06T09:02:37.310Z,6.90
2018-01-06T09:05:04.902Z,6.90
2018-01-06T09:07:32.370Z,6.90
2018-01-06T09:09:59.830Z,6.90
2018-01-06T09:12:27.288Z,6.90
2018-01-06T09:14:55.144Z,6.90
2018-01-06T09:17:22.697Z,6.90
2018-01-06T09:19:50.200Z,6.90
2018-01-06T09:22:18.221Z,6.90
2018-01-06T09:24:45.856Z,6.90
2018-01-06T09:27:13.968Z,6.90
2018-01-06T09:29:41.422Z,6.90
2018-01-06T09:32:08.862Z,6.90
2018-01-06T09:34:36.410Z,6.90
2018-01-06T09:37:04.289Z,6.90
2018-01-06T09:39:31.731Z,6.90
2018-01-06T09:41:59.194Z,6.90
2018-01-06T09:44:26.633Z,7.00
2018-01-06T09:46:54.153Z,7.00
2018-01-06T09:49:22.364Z,7.10
2018-01-06T09:51:49.974Z,7.10
2018-01-06T09:54:17.410Z,7.10
2018-01-06T09:56:45.008Z,7.20
2018-01-06T09:59:13.310Z,7.20
2018-01-06T10:01:40.749Z,7.20
2018-01-06T10:04:08.371Z,7.20
2018-01-06T10:06:35.814Z,7.20
2018-01-06T10:09:03.391Z,7.30
2018-01-06T10:11:32.992Z,7.30
2018-01-06T10:14:00.475Z,7.30
2018-01-06T10:16:28.922Z,7.40
2018-01-06T10:18:56.403Z,7.30
2018-01-06T10:21:24.641Z,7.40
2018-01-06T10:23:52.180Z,7.40
2018-01-06T10:26:19.650Z,7.40
2018-01-06T10:28:47.811Z,7.40
2018-01-06T10:31:15.377Z,7.40
2018-01-06T10:33:42.868Z,7.40
2018-01-06T10:36:13.734Z,7.50
2018-01-06T10:38:41.982Z,7.60
2018-01-06T10:41:09.818Z,7.50
2018-01-06T10:43:37.278Z,7.60
2018-01-06T10:46:04.737Z,7.60
2018-01-06T10:48:32.201Z,7.70
2018-01-06T10:50:59.698Z,7.70
2018-01-06T10:53:27.953Z,7.70
2018-01-06T10:55:55.499Z,7.70
2018-01-06T10:58:23.839Z,7.70
2018-01-06T11:00:57.084Z,7.70
2018-01-06T11:03:24.558Z,7.70
2018-01-06T11:05:52.775Z,7.70
2018-01-06T11:08:20.728Z,7.70
2018-01-06T11:10:49.141Z,7.70
2018-01-06T11:13:17.320Z,7.80
2018-01-06T11:15:44.852Z,7.90
2018-01-06T11:18:12.528Z,7.90
2018-01-06T11:20:39.994Z,7.90
2018-01-06T11:23:07.443Z,8.00
2018-01-06T11:25:34.939Z,8.10
2018-01-06T11:28:03.725Z,8.20
2018-01-06T11:30:31.997Z,8.30
2018-01-06T11:33:00.299Z,8.30
2018-01-06T11:35:28.281Z,8.30
2018-01-06T11:37:56.219Z,8.30
2018-01-06T11:40:23.670Z,8.30
2018-01-06T11:42:52.647Z,8.30
2018-01-06T11:45:20.567Z,8.40
2018-01-06T11:47:48.122Z,8.40
2018-01-06T11:50:16.764Z,8.40
2018-01-06T11:52:44.257Z,8.40
2018-01-06T11:55:11.723Z,8.40
2018-01-06T11:57:39.252Z,8.50
2018-01-06T12:00:07.465Z,8.60
2018-01-06T12:02:34.952Z,8.60
2018-01-06T12:05:02.430Z,8.60
2018-01-06T12:07:30.480Z,8.60
2018-01-06T12:09:58.120Z,8.60
2018-01-06T12:12:25.615Z,8.60
2018-01-06T12:14:53.951Z,8.70
2018-01-06T12:17:21.499Z,8.70
2018-01-06T12:19:48.989Z,8.70
2018-01-06T12:22:16.883Z,8.70
2018-01-06T12:24:45.132Z,8.70
2018-01-06T12:27:13.674Z,8.70
2018-01-06T12:29:41.354Z,8.80
2018-01-06T12:32:08.821Z,8.80
2018-01-06T12:34:36.287Z,8.80
2018-01-06T12:37:04.224Z,8.80
2018-01-06T12:39:31.893Z,8.80
2018-01-06T12:41:59.449Z,8.80
2018-01-06T12:44:27.714Z,8.90
2018-01-06T12:46:55.316Z,8.90
2018-01-06T12:49:22.807Z,8.90
2018-01-06T12:51:51.103Z,8.90
2018-01-06T12:54:18.705Z,9.00
2018-01-06T12:56:46.166Z,9.00
2018-01-06T12:59:13.999Z,8.90
2018-01-06T13:01:42.019Z,9.00
2018-01-06T13:04:10.963Z,9.00
2018-01-06T13:06:38.604Z,8.90
2018-01-06T13:09:06.652Z,9.00
2018-01-06T13:11:34.964Z,9.00
2018-01-06T13:14:02.473Z,8.90
2018-01-06T13:16:30.073Z,9.00
2018-01-06T13:18:57.630Z,9.00
2018-01-06T13:21:25.725Z,8.90
2018-01-06T13:23:53.171Z,8.90
2018-01-06T13:26:20.685Z,8.90
2018-01-06T13:28:49.587Z,8.90
2018-01-06T13:31:17.043Z,8.90
2018-01-06T13:33:44.701Z,8.90
2018-01-06T13:36:12.919Z,8.90
2018-01-06T13:38:40.426Z,8.90
2018-01-06T13:41:08.767Z,8.90
2018-01-06T13:43:36.303Z,8.90
2018-01-06T13:46:03.779Z,8.90
2018-01-06T13:48:31.863Z,8.90
2018-01-06T13:50:59.332Z,8.90
2018-01-06T13:53:26.830Z,8.90
2018-01-06T13:55:54.285Z,8.90
2018-01-06T13:58:21.765Z,8.90
2018-01-06T14:00:49.247Z,8.90
2018-01-06T14:03:16.687Z,8.90
2018-01-06T14:05:44.237Z,8.90
2018-01-06T14:08:11.696Z,8.90
2018-01-06T14:10:39.853Z,8.90
2018-01-06T14:13:07.286Z,8.90
2018-01-06T14:15:34.770Z,8.90
2018-01-06T14:18:02.268Z,8.90
2018-01-06T14:20:29.724Z,8.90
2018-01-06T14:22:57.464Z,8.90
2018-01-06T14:25:24.905Z,8.90
2018-01-06T14:27:53.625Z,8.80
2018-01-06T14:30:21.135Z,8.80
2018-01-06T14:32:49.459Z,8.80
2018-01-06T14:35:16.947Z,8.80
2018-01-06T14:37:45.378Z,8.80
2018-01-06T14:40:12.840Z,8.70
2018-01-06T14:42:40.820Z,8.70
2018-01-06T14:45:08.328Z,8.70
2018-01-06T14:47:35.897Z,8.60
2018-01-06T14:50:04.273Z,8.60
2018-01-06T14:52:31.776Z,8.60
2018-01-06T14:54:59.805Z,8.50
2018-01-06T14:57:27.563Z,8.50
2018-01-06T14:59:55.061Z,8.50
2018-01-06T15:02:22.543Z,8.50
2018-01-06T15:04:50.140Z,8.50
2018-01-06T15:07:17.625Z,8.40
2018-01-06T15:09:45.067Z,8.40
2018-01-06T15:12:12.717Z,8.40
2018-01-06T15:14:40.476Z,8.40
2018-01-06T15:17:08.138Z,8.40
2018-01-06T15:19:35.792Z,8.40
2018-01-06T15:22:03.397Z,8.40
2018-01-06T15:24:31.016Z,8.40
2018-01-06T15:27:00.361Z,8.40
2018-01-06T15:29:28.595Z,8.40
2018-01-06T15:31:56.606Z,8.30
2018-01-06T15:34:24.947Z,8.30
2018-01-06T15:36:52.426Z,8.30
2018-01-06T15:39:20.510Z,8.30
2018-01-06T15:41:48.154Z,8.30
2018-01-06T15:44:15.619Z,8.30
2018-01-06T15:46:43.099Z,8.30
2018-01-06T15:49:11.412Z,8.20
2018-01-06T15:51:38.971Z,8.20
2018-01-06T15:54:06.410Z,8.20
2018-01-06T15:56:33.955Z,8.10
2018-01-06T15:59:02.181Z,8.10
2018-01-06T16:01:29.622Z,8.10
2018-01-06T16:03:57.210Z,8.10
2018-01-06T16:06:24.669Z,8.10
2018-01-06T16:08:52.180Z,8.00
2018-01-06T16:11:19.877Z,8.00
2018-01-06T16:13:47.310Z,8.00
2018-01-06T16:16:14.841Z,7.90
2018-01-06T16:18:42.942Z,7.90
2018-01-06T16:21:10.400Z,7.90
2018-01-06T16:23:37.875Z,7.90
2018-01-06T16:26:05.333Z,7.90
2018-01-06T16:28:33.131Z,7.90
2018-01-06T16:31:00.624Z,7.80
2018-01-06T16:33:28.355Z,7.80
2018-01-06T16:35:56.416Z,7.80
2018-01-06T16:38:25.838Z,7.80
2018-01-06T16:40:54.168Z,7.80
2018-01-06T16:43:21.914Z,7.80
2018-01-06T16:45:49.543Z,7.90
2018-01-06T16:48:17.860Z,7.90
2018-01-06T16:50:45.449Z,7.90
2018-01-06T16:53:12.966Z,7.90
2018-01-06T16:55:40.448Z,7.90
2018-01-06T16:58:08.353Z,7.90
2018-01-06T17:00:36.604Z,7.90
2018-01-06T17:03:04.748Z,7.80
2018-01-06T17:05:32.318Z,7.90
2018-01-06T17:07:59.860Z,7.90
2018-01-06T17:10:28.440Z,7.80
2018-01-06T17:12:55.901Z,7.90
2018-01-06T17:15:23.419Z,7.90
2018-01-06T17:17:51.682Z,7.90
2018-01-06T17:20:19.330Z,7.90
2018-01-06T17:22:46.830Z,7.90
2018-01-06T17:25:14.807Z,7.90
2018-01-06T17:27:42.760Z,7.90
2018-01-06T17:30:10.222Z,7.90
2018-01-06T17:32:37.764Z,7.90
2018-01-06T17:35:06.122Z,7.90
2018-01-06T17:37:33.624Z,7.90
2018-01-06T17:40:01.550Z,7.90
2018-01-06T17:42:29.049Z,7.90
2018-01-06T17:44:56.509Z,7.90
2018-01-06T17:47:24.059Z,7.90
2018-01-06T17:49:51.625Z,7.90
2018-01-06T17:52:19.137Z,7.90
2018-01-06T17:54:46.623Z,7.90
2018-01-06T17:57:14.096Z,7.90
2018-01-06T17:59:41.573Z,7.90
2018-01-06T18:02:09.689Z,7.90
2018-01-06T18:04:38.012Z,7.90
2018-01-06T18:07:05.504Z,7.90
2018-01-06T18:09:33.166Z,7.90
2018-01-06T18:12:00.683Z,7.90
2018-01-06T18:14:28.200Z,8.00
2018-01-06T18:16:55.697Z,7.90
2018-01-06T18:19:23.316Z,7.90
2018-01-06T18:21:50.853Z,7.90
2018-01-06T18:24:18.474Z,7.90
2018-01-06T18:26:46.500Z,7.90
2018-01-06T18:29:15.406Z,7.90
2018-01-06T18:31:43.659Z,7.90
2018-01-06T18:34:11.988Z,7.80
2018-01-06T18:36:39.899Z,7.80
2018-01-06T18:39:07.798Z,7.80
2018-01-06T18:41:36.032Z,7.70
2018-01-06T18:44:03.543Z,7.70
2018-01-06T18:46:31.084Z,7.70
2018-01-06T18:48:58.558Z,7.70
2018-01-06T18:51:27.119Z,7.70
2018-01-06T18:53:55.356Z,7.70
2018-01-06T18:56:23.762Z,7.70
2018-01-06T18:58:51.216Z,7.70
2018-01-06T19:01:20.263Z,7.70
2018-01-06T19:03:47.766Z,7.70
2018-01-06T19:06:16.247Z,7.70
2018-01-06T19:08:43.969Z,7.70
2018-01-06T19:11:11.985Z,7.80
2018-01-06T19:13:40.312Z,7.70
2018-01-06T19:16:08.592Z,7.70
2018-01-06T19:18:36.116Z,7.70
2018-01-06T19:21:04.591Z,7.70
2018-01-06T19:23:33.548Z,7.70
2018-01-06T19:26:01.133Z,7.80
2018-01-06T19:28:30.044Z,7.80
2018-01-06T19:30:57.504Z,7.80
2018-01-06T19:33:25.217Z,7.80
2018-01-06T19:35:52.698Z,7.80
2018-01-06T19:38:21.689Z,7.80
2018-01-06T19:40:50.354Z,7.80
2018-01-06T19:43:17.838Z,7.80
2018-01-06T19:45:45.305Z,7.80
2018-01-06T19:48:12.785Z,7.90
2018-01-06T19:50:40.545Z,7.90
2018-01-06T19:53:08.101Z,7.90
2018-01-06T19:55:35.656Z,7.90
2018-01-06T19:58:03.141Z,7.90
2018-01-06T20:00:30.784Z,7.90
2018-01-06T20:02:58.816Z,7.80
2018-01-06T20:05:28.953Z,7.80
2018-01-06T20:07:56.422Z,7.70
2018-01-06T20:10:23.918Z,7.70
2018-01-06T20:12:51.872Z,7.70
2018-01-06T20:15:19.349Z,7.70
2018-01-06T20:17:46.816Z,7.60
2018-01-06T20:20:14.289Z,7.60
2018-01-06T20:22:42.591Z,7.50
2018-01-06T20:25:10.318Z,7.60
2018-01-06T20:27:38.980Z,7.50
2018-01-06T20:30:06.869Z,7.50
2018-01-06T20:32:35.092Z,7.50
2018-01-06T20:35:02.560Z,7.50
2018-01-06T20:37:30.095Z,7.50
2018-01-06T20:39:58.110Z,7.50
2018-01-06T20:42:25.546Z,7.40
2018-01-06T20:44:53.344Z,7.40
2018-01-06T20:47:21.966Z,7.40
2018-01-06T20:49:50.553Z,7.40
2018-01-06T20:52:18.318Z,7.40
2018-01-06T20:54:46.076Z,7.30
2018-01-06T20:57:13.944Z,7.40
2018-01-06T20:59:41.415Z,7.40
2018-01-06T21:02:09.077Z,7.40
2018-01-06T21:04:36.824Z,7.40
2018-01-06T21:07:04.383Z,7.40
2018-01-06T21:09:31.992Z,7.40
2018-01-06T21:11:59.523Z,7.40
2018-01-06T21:14:27.140Z,7.40
2018-01-06T21:16:55.406Z,7.30
2018-01-06T21:19:23.752Z,7.30
2018-01-06T21:21:51.205Z,7.30
2018-01-06T21:24:18.878Z,7.30
2018-01-06T21:26:48.079Z,7.20
2018-01-06T21:29:16.053Z,7.20
2018-01-06T21:31:43.559Z,7.20
2018-01-06T21:34:11.036Z,7.20
2018-01-06T21:36:38.516Z,7.20
2018-01-06T21:39:05.971Z,7.20
2018-01-06T21:41:33.944Z,7.20
2018-01-06T21:44:01.410Z,7.20
2018-01-06T21:46:29.729Z,7.10
2018-01-06T21:48:57.287Z,7.10
2018-01-06T21:51:25.676Z,7.10
2018-01-06T21:53:53.368Z,7.10
2018-01-06T21:56:20.947Z,7.10
2018-01-06T21:58:49.674Z,7.10
2018-01-06T22:01:17.264Z,7.10
2018-01-06T22:03:44.737Z,7.10
2018-01-06T22:06:12.902Z,7.10
2018-01-06T22:08:40.363Z,7.10
2018-01-06T22:11:07.831Z,7.10
2018-01-06T22:13:35.291Z,7.10
2018-01-06T22:16:03.571Z,7.00
2018-01-06T22:18:31.417Z,7.00
2018-01-06T22:20:59.202Z,7.00
2018-01-06T22:23:26.663Z,7.10
2018-01-06T22:25:55.067Z,7.10
2018-01-06T22:28:23.592Z,7.00
2018-01-06T22:30:51.314Z,7.00
2018-01-06T22:33:19.581Z,7.00
2018-01-06T22:35:47.154Z,7.00
2018-01-06T22:38:14.577Z,7.00
2018-01-06T22:40:43.068Z,7.00
2018-01-06T22:43:10.552Z,7.00
2018-01-06T22:45:38.030Z,7.00
2018-01-06T22:48:05.541Z,7.00
2018-01-06T22:50:32.990Z,6.90
2018-01-06T22:53:01.269Z,6.90
2018-01-06T22:55:29.496Z,6.90
2018-01-06T22:57:57.625Z,6.90
2018-01-06T23:00:26.035Z,6.80
2018-01-06T23:02:53.534Z,6.90
2018-01-06T23:05:22.984Z,6.90
2018-01-06T23:07:50.744Z,6.90
2018-01-06T23:10:18.311Z,6.90
2018-01-06T23:12:45.801Z,6.90
2018-01-06T23:15:14.549Z,6.90
2018-01-06T23:17:42.140Z,6.90
2018-01-06T23:20:09.970Z,6.90
2018-01-06T23:22:37.754Z,6.90
2018-01-06T23:25:06.267Z,6.90
2018-01-06T23:27:34.898Z,6.90
2018-01-06T23:30:03.072Z,6.90
2018-01-06T23:32:30.788Z,6.90
2018-01-06T23:34:58.322Z,6.90
2018-01-06T23:37:25.782Z,6.90
2018-01-06T23:39:53.303Z,6.90
2018-01-06T23:42:21.239Z,7.00
2018-01-06T23:44:49.087Z,6.90
2018-01-06T23:47:16.615Z,6.90
2018-01-06T23:49:44.065Z,6.90
2018-01-06T23:52:11.768Z,6.90
2018-01-06T23:54:39.540Z,6.80
2018-01-06T23:57:07.818Z,6.90
2018-01-06T23:59:35.399Z,6.80
